createdAt,value
2018-07-03T00:00:23.899Z,8.53
2018-07-03T00:02:53.780Z,8.77
2018-07-03T00:05:23.603Z,8.43
2018-07-03T00:07:53.601Z,8.67
2018-07-03T00:10:23.417Z,9.47
2018-07-03T00:12:53.442Z,8.97
2018-07-03T00:15:23.355Z,9.03
2018-07-03T00:17:53.260Z,9.20
2018-07-03T00:20:23.106Z,9.40
2018-07-03T00:22:53.032Z,9.00
2018-07-03T00:25:22.807Z,8.80
2018-07-03T00:27:52.643Z,8.87
2018-07-03T00:30:22.428Z,9.30
2018-07-03T00:32:52.289Z,8.63
2018-07-03T00:35:22.097Z,9.40
2018-07-03T00:37:52.016Z,9.53
2018-07-03T00:40:21.870Z,9.30
2018-07-03T00:42:51.749Z,9.30
2018-07-03T00:45:21.719Z,8.97
2018-07-03T00:47:51.616Z,9.07
2018-07-03T00:50:21.409Z,9.13
2018-07-03T00:52:51.258Z,8.90
2018-07-03T00:55:21.087Z,9.00
2018-07-03T00:57:50.953Z,9.37
2018-07-03T01:00:33.708Z,9.03
2018-07-03T01:03:04.455Z,8.63
2018-07-03T01:05:34.656Z,8.90
2018-07-03T01:08:04.499Z,8.23
2018-07-03T01:10:34.369Z,9.10
2018-07-03T01:13:04.288Z,7.80
2018-07-03T01:15:34.189Z,8.83
2018-07-03T01:18:04.151Z,8.17
2018-07-03T01:20:33.947Z,8.27
2018-07-03T01:23:03.732Z,8.90
2018-07-03T01:25:33.599Z,8.40
2018-07-03T01:28:03.455Z,8.47
2018-07-03T01:30:33.325Z,8.87
2018-07-03T01:33:03.139Z,9.20
2018-07-03T01:35:33.076Z,9.60
2018-07-03T01:38:02.910Z,9.20
2018-07-03T01:40:32.755Z,9.33
2018-07-03T01:43:02.630Z,9.37
2018-07-03T01:45:32.460Z,9.13
2018-07-03T01:48:02.320Z,9.87
2018-07-03T01:50:32.151Z,9.20
2018-07-03T01:53:01.963Z,7.67
2018-07-03T01:55:31.816Z,8.57
2018-07-03T01:58:01.664Z,9.23
2018-07-03T02:00:31.459Z,9.07
2018-07-03T02:03:01.315Z,9.93
2018-07-03T02:05:31.111Z,8.73
2018-07-03T02:08:00.972Z,9.67
2018-07-03T02:10:30.883Z,8.93
2018-07-03T02:13:00.707Z,9.40
2018-07-03T02:15:30.540Z,9.50
2018-07-03T02:18:00.374Z,9.57
2018-07-03T02:20:30.247Z,8.67
2018-07-03T02:23:00.044Z,9.30
2018-07-03T02:25:29.837Z,9.67
2018-07-03T02:27:59.627Z,8.73
2018-07-03T02:30:29.512Z,9.73
2018-07-03T02:32:59.356Z,9.23
2018-07-03T02:35:29.179Z,9.50
2018-07-03T02:37:58.967Z,9.33
2018-07-03T02:40:28.835Z,9.53
2018-07-03T02:42:58.691Z,9.33
2018-07-03T02:45:28.563Z,9.53
2018-07-03T02:47:58.363Z,9.83
2018-07-03T02:50:28.243Z,10.07
2018-07-03T02:52:58.128Z,9.00
2018-07-03T02:55:27.976Z,10.23
2018-07-03T02:57:57.816Z,9.40
2018-07-03T03:00:27.692Z,9.50
2018-07-03T03:02:57.568Z,9.87
2018-07-03T03:05:27.402Z,10.50
2018-07-03T03:07:57.241Z,9.93
2018-07-03T03:10:27.076Z,9.77
2018-07-03T03:12:57.031Z,9.90
2018-07-03T03:15:26.956Z,53.40
2018-07-03T03:17:56.880Z,41.47
2018-07-03T03:20:26.743Z,33.63
2018-07-03T03:22:56.691Z,27.07
2018-07-03T03:25:26.583Z,29.67
2018-07-03T03:27:56.442Z,32.53
2018-07-03T03:30:26.236Z,26.70
2018-07-03T03:32:56.457Z,29.20
2018-07-03T03:35:26.356Z,24.27
2018-07-03T03:37:56.221Z,20.93
2018-07-03T03:40:26.131Z,22.37
2018-07-03T03:42:55.927Z,21.37
2018-07-03T03:45:26.039Z,21.63
2018-07-03T03:47:55.834Z,20.30
2018-07-03T03:50:25.629Z,22.43
2018-07-03T03:52:55.505Z,20.30
2018-07-03T03:55:25.386Z,20.00
2018-07-03T03:57:55.195Z,17.80
2018-07-03T04:00:25.128Z,23.57
2018-07-03T04:02:55.016Z,21.43
2018-07-03T04:05:24.905Z,18.73
2018-07-03T04:07:54.774Z,16.57
2018-07-03T04:10:24.699Z,16.13
2018-07-03T04:12:54.471Z,15.90
2018-07-03T04:15:24.270Z,15.50
2018-07-03T04:17:54.053Z,15.33
2018-07-03T04:20:23.843Z,14.67
2018-07-03T04:22:53.627Z,14.43
2018-07-03T04:25:23.587Z,14.53
2018-07-03T04:27:53.383Z,14.20
2018-07-03T04:30:23.228Z,14.90
2018-07-03T04:32:53.075Z,15.57
2018-07-03T04:35:22.875Z,15.53
2018-07-03T04:37:52.745Z,14.13
2018-07-03T04:40:22.538Z,15.07
2018-07-03T04:42:52.371Z,14.63
2018-07-03T04:45:22.212Z,14.77
2018-07-03T04:47:52.187Z,14.70
2018-07-03T04:50:21.987Z,14.87
2018-07-03T04:52:51.848Z,15.20
2018-07-03T04:55:21.927Z,15.40
2018-07-03T04:57:51.713Z,14.77
2018-07-03T05:00:21.618Z,14.00
2018-07-03T05:02:51.477Z,13.53
2018-07-03T05:05:21.315Z,14.57
2018-07-03T05:07:51.267Z,14.20
2018-07-03T05:10:21.333Z,15.33
2018-07-03T05:12:51.164Z,14.90
2018-07-03T05:15:21.503Z,15.90
2018-07-03T05:17:51.367Z,14.17
2018-07-03T05:20:21.251Z,13.63
2018-07-03T05:22:51.067Z,12.97
2018-07-03T05:25:21.007Z,13.70
2018-07-03T05:27:50.786Z,14.83
2018-07-03T05:30:20.607Z,15.93
2018-07-03T05:32:50.468Z,14.63
2018-07-03T05:35:20.311Z,14.77
2018-07-03T05:37:50.246Z,15.87
2018-07-03T05:40:20.093Z,15.63
2018-07-03T05:42:49.936Z,15.07
2018-07-03T05:45:19.717Z,15.60
2018-07-03T05:47:49.608Z,16.17
2018-07-03T05:50:19.433Z,16.40
2018-07-03T05:52:49.257Z,15.77
2018-07-03T05:55:19.061Z,16.27
2018-07-03T05:57:48.899Z,14.93
2018-07-03T06:00:18.731Z,15.60
2018-07-03T06:02:48.677Z,15.03
2018-07-03T06:05:18.550Z,16.40
2018-07-03T06:07:48.370Z,15.27
2018-07-03T06:10:18.210Z,16.10
2018-07-03T06:12:48.023Z,15.97
2018-07-03T06:15:17.895Z,15.87
2018-07-03T06:17:47.691Z,16.17
2018-07-03T06:20:17.580Z,15.27
2018-07-03T06:22:47.598Z,16.33
2018-07-03T06:25:17.435Z,16.93
2018-07-03T06:27:47.271Z,17.03
2018-07-03T06:30:17.170Z,17.80
2018-07-03T06:32:46.979Z,17.30
2018-07-03T06:35:16.803Z,17.97
2018-07-03T06:37:46.691Z,18.23
2018-07-03T06:40:16.531Z,16.50
2018-07-03T06:42:46.374Z,16.97
2018-07-03T06:45:16.388Z,16.70
2018-07-03T06:47:47.022Z,17.50
2018-07-03T06:50:16.993Z,17.30
2018-07-03T06:52:46.826Z,16.60
2018-07-03T06:55:16.723Z,17.03
2018-07-03T06:57:46.578Z,16.83
2018-07-03T07:00:16.590Z,16.77
2018-07-03T07:02:46.665Z,17.50
2018-07-03T07:05:16.591Z,16.87
2018-07-03T07:07:46.480Z,17.07
2018-07-03T07:10:16.395Z,16.77
2018-07-03T07:12:46.325Z,16.53
2018-07-03T07:15:16.475Z,15.63
2018-07-03T07:17:46.320Z,15.70
2018-07-03T07:20:17.019Z,16.33
2018-07-03T07:22:46.946Z,20.33
2018-07-03T07:25:16.996Z,23.80
2018-07-03T07:27:46.751Z,15.07
2018-07-03T07:30:19.643Z,16.63
2018-07-03T07:32:49.991Z,16.13
2018-07-03T07:35:19.912Z,15.40
2018-07-03T07:37:49.703Z,22.87
2018-07-03T07:40:19.529Z,20.43
2018-07-03T07:42:49.344Z,16.13
2018-07-03T07:45:19.216Z,15.43
2018-07-03T07:47:49.234Z,14.53
2018-07-03T07:50:19.150Z,14.47
2018-07-03T07:52:48.990Z,15.53
2018-07-03T07:55:18.833Z,16.50
2018-07-03T07:57:48.761Z,16.17
2018-07-03T08:00:18.586Z,16.83
2018-07-03T08:02:48.407Z,15.43
2018-07-03T08:05:18.267Z,13.37
2018-07-03T08:07:48.096Z,14.03
2018-07-03T08:10:17.951Z,14.60
2018-07-03T08:12:47.767Z,13.67
2018-07-03T08:15:17.604Z,14.90
2018-07-03T08:17:47.521Z,14.97
2018-07-03T08:20:17.411Z,13.50
2018-07-03T08:22:47.288Z,15.27
2018-07-03T08:25:17.074Z,14.30
2018-07-03T08:27:46.906Z,13.87
2018-07-03T08:30:16.698Z,16.03
2018-07-03T08:32:46.483Z,14.10
2018-07-03T08:35:16.490Z,14.73
2018-07-03T08:37:46.326Z,14.07
2018-07-03T08:40:16.135Z,14.20
2018-07-03T08:42:46.023Z,14.33
2018-07-03T08:45:15.871Z,13.93
2018-07-03T08:47:45.699Z,14.10
2018-07-03T08:50:15.535Z,15.67
2018-07-03T08:52:45.322Z,14.57
2018-07-03T08:55:15.115Z,13.90
2018-07-03T08:57:44.935Z,13.90
2018-07-03T09:00:14.852Z,13.00
2018-07-03T09:02:44.780Z,13.57
2018-07-03T09:05:14.667Z,14.17
2018-07-03T09:07:44.463Z,13.93
2018-07-03T09:10:14.295Z,14.57
2018-07-03T09:12:44.103Z,13.73
2018-07-03T09:15:13.911Z,14.53
2018-07-03T09:17:43.744Z,13.43
2018-07-03T09:20:13.616Z,14.23
2018-07-03T09:22:43.528Z,13.40
2018-07-03T09:25:13.408Z,12.20
2018-07-03T09:27:43.225Z,11.23
2018-07-03T09:30:13.040Z,11.43
2018-07-03T09:32:42.936Z,12.20
2018-07-03T09:35:12.807Z,12.07
2018-07-03T09:37:42.727Z,11.67
2018-07-03T09:40:12.679Z,11.43
2018-07-03T09:42:42.475Z,9.77
2018-07-03T09:45:12.240Z,9.47
2018-07-03T09:47:42.059Z,10.03
2018-07-03T09:50:11.918Z,9.97
2018-07-03T09:52:41.703Z,10.57
2018-07-03T09:55:11.593Z,10.17
2018-07-03T09:57:41.503Z,10.07
2018-07-03T10:00:11.296Z,9.97
2018-07-03T10:02:41.197Z,9.77
2018-07-03T10:05:10.975Z,9.03
2018-07-03T10:07:40.783Z,8.70
2018-07-03T10:10:10.699Z,9.03
2018-07-03T10:12:40.510Z,7.97
2018-07-03T10:15:10.268Z,7.93
2018-07-03T10:17:40.176Z,7.27
2018-07-03T10:20:10.029Z,7.83
2018-07-03T10:22:39.895Z,9.57
2018-07-03T10:25:09.864Z,8.47
2018-07-03T10:27:39.664Z,8.40
2018-07-03T10:30:09.575Z,7.70
2018-07-03T10:32:39.544Z,9.10
2018-07-03T10:35:09.479Z,9.50
2018-07-03T10:37:39.328Z,9.30
2018-07-03T10:40:09.213Z,9.70
2018-07-03T10:42:39.112Z,9.47
2018-07-03T10:45:08.904Z,8.63
2018-07-03T10:47:38.785Z,9.43
2018-07-03T10:50:08.631Z,8.83
2018-07-03T10:52:38.439Z,9.97
2018-07-03T10:55:08.255Z,10.63
2018-07-03T10:57:38.036Z,9.33
2018-07-03T11:00:08.303Z,9.80
2018-07-03T11:02:38.748Z,9.27
2018-07-03T11:05:08.719Z,9.50
2018-07-03T11:07:38.579Z,10.10
2018-07-03T11:10:08.463Z,10.20
2018-07-03T11:12:38.903Z,9.97
2018-07-03T11:15:08.699Z,10.03
2018-07-03T11:17:38.703Z,10.77
2018-07-03T11:20:08.901Z,14.27
2018-07-03T11:22:38.820Z,11.93
2018-07-03T11:25:08.800Z,11.20
2018-07-03T11:27:38.615Z,10.27
2018-07-03T11:30:08.560Z,10.63
2018-07-03T11:32:38.778Z,10.30
2018-07-03T11:35:08.689Z,10.33
2018-07-03T11:37:39.152Z,9.40
2018-07-03T11:40:08.987Z,9.80
2018-07-03T11:42:38.787Z,11.07
2018-07-03T11:45:08.690Z,8.83
2018-07-03T11:47:38.507Z,9.30
2018-07-03T11:50:08.597Z,9.60
2018-07-03T11:52:38.947Z,9.50
2018-07-03T11:55:09.019Z,9.43
2018-07-03T11:57:38.931Z,9.93
2018-07-03T12:00:08.867Z,9.23
2018-07-03T12:02:38.780Z,9.70
2018-07-03T12:05:08.591Z,9.83
2018-07-03T12:07:38.615Z,10.03
2018-07-03T12:10:08.466Z,10.07
2018-07-03T12:12:38.373Z,10.33
2018-07-03T12:15:08.289Z,9.03
2018-07-03T12:17:38.099Z,11.07
2018-07-03T12:20:08.076Z,11.47
2018-07-03T12:22:37.952Z,11.27
2018-07-03T12:25:07.891Z,9.03
2018-07-03T12:27:37.771Z,9.83
2018-07-03T12:30:09.977Z,9.67
2018-07-03T12:32:40.016Z,10.00
2018-07-03T12:35:10.088Z,9.20
2018-07-03T12:37:40.554Z,9.90
2018-07-03T12:40:10.455Z,10.13
2018-07-03T12:42:40.316Z,9.80
2018-07-03T12:45:10.260Z,10.20
2018-07-03T12:47:40.040Z,9.83
2018-07-03T12:50:09.873Z,10.03
2018-07-03T12:52:39.695Z,10.50
2018-07-03T12:55:09.518Z,11.20
2018-07-03T12:57:39.904Z,10.63
2018-07-03T13:00:09.888Z,11.53
2018-07-03T13:02:39.683Z,10.87
2018-07-03T13:05:09.778Z,9.80
2018-07-03T13:07:39.624Z,10.03
2018-07-03T13:10:09.528Z,10.50
2018-07-03T13:12:40.207Z,11.03
2018-07-03T13:15:10.115Z,10.90
2018-07-03T13:17:40.080Z,11.23
2018-07-03T13:20:09.956Z,10.17
2018-07-03T13:22:39.946Z,9.43
2018-07-03T13:25:11.735Z,10.30
2018-07-03T13:27:41.591Z,9.77
2018-07-03T13:30:11.776Z,10.33
2018-07-03T13:32:41.588Z,8.50
2018-07-03T13:35:11.704Z,9.50
2018-07-03T13:37:41.563Z,10.53
2018-07-03T13:40:11.819Z,8.70
2018-07-03T13:42:41.651Z,9.77
2018-07-03T13:45:11.600Z,8.80
2018-07-03T13:47:41.423Z,9.13
2018-07-03T13:50:11.284Z,8.90
2018-07-03T13:52:41.131Z,8.57
2018-07-03T13:55:11.119Z,8.70
2018-07-03T13:57:40.951Z,9.83
2018-07-03T14:00:12.691Z,8.63
2018-07-03T14:02:42.728Z,9.10
2018-07-03T14:05:13.659Z,8.30
2018-07-03T14:07:43.527Z,8.60
2018-07-03T14:10:13.335Z,9.13
2018-07-03T14:12:43.203Z,8.73
2018-07-03T14:15:13.104Z,9.47
2018-07-03T14:17:43.112Z,9.00
2018-07-03T14:20:12.970Z,8.50
2018-07-03T14:22:42.996Z,8.60
2018-07-03T14:25:13.317Z,8.90
2018-07-03T14:27:43.195Z,7.60
2018-07-03T14:30:13.139Z,7.10
2018-07-03T14:32:43.011Z,8.10
2018-07-03T14:35:12.870Z,7.53
2018-07-03T14:37:42.787Z,7.53
2018-07-03T14:40:12.620Z,6.90
2018-07-03T14:42:42.481Z,7.23
2018-07-03T14:45:12.267Z,7.43
2018-07-03T14:47:42.082Z,8.53
2018-07-03T14:50:12.247Z,8.63
2018-07-03T14:52:42.100Z,8.23
2018-07-03T14:55:11.960Z,8.30
2018-07-03T14:57:41.833Z,7.67
2018-07-03T15:00:11.784Z,9.87
2018-07-03T15:02:41.820Z,9.23
2018-07-03T15:05:11.754Z,7.60
2018-07-03T15:07:41.665Z,7.33
2018-07-03T15:10:11.475Z,8.13
2018-07-03T15:12:41.407Z,7.17
2018-07-03T15:15:11.348Z,7.13
2018-07-03T15:17:41.150Z,6.67
2018-07-03T15:20:11.115Z,7.77
2018-07-03T15:22:41.074Z,8.43
2018-07-03T15:25:10.890Z,8.10
2018-07-03T15:27:40.776Z,6.73
2018-07-03T15:30:10.755Z,6.77
2018-07-03T15:32:40.595Z,6.60
2018-07-03T15:35:10.480Z,7.07
2018-07-03T15:37:40.373Z,7.60
2018-07-03T15:40:10.224Z,8.47
2018-07-03T15:42:40.120Z,8.90
2018-07-03T15:45:11.644Z,9.43
2018-07-03T15:47:41.582Z,8.70
2018-07-03T15:50:12.408Z,9.03
2018-07-03T15:52:42.364Z,10.27
2018-07-03T15:55:12.348Z,9.23
2018-07-03T15:57:42.195Z,8.47
2018-07-03T16:00:14.960Z,9.50
2018-07-03T16:02:55.649Z,8.83
2018-07-03T16:05:36.943Z,9.97
2018-07-03T16:08:49.407Z,9.10
2018-07-03T16:11:19.255Z,8.63
2018-07-03T16:13:49.176Z,8.60
2018-07-03T16:16:19.066Z,8.97
2018-07-03T16:18:48.915Z,9.87
2018-07-03T16:21:18.723Z,9.83
2018-07-03T16:23:48.587Z,9.63
2018-07-03T16:26:18.502Z,9.47
2018-07-03T16:28:48.315Z,9.90
2018-07-03T16:31:18.223Z,9.07
2018-07-03T16:33:48.074Z,9.80
2018-07-03T16:36:17.935Z,13.10
2018-07-03T16:38:47.832Z,10.73
2018-07-03T16:41:17.708Z,12.50
2018-07-03T16:43:47.609Z,12.37
2018-07-03T16:46:17.505Z,11.60
2018-07-03T16:48:47.349Z,11.10
2018-07-03T16:51:17.162Z,10.20
2018-07-03T16:53:47.080Z,9.03
2018-07-03T16:56:17.032Z,9.67
2018-07-03T16:58:46.899Z,10.07
2018-07-03T17:01:16.781Z,11.37
2018-07-03T17:03:46.680Z,9.97
2018-07-03T17:06:16.537Z,9.17
2018-07-03T17:08:46.500Z,8.77
2018-07-03T17:11:16.495Z,8.77
2018-07-03T17:13:46.446Z,10.13
2018-07-03T17:16:16.211Z,9.87
2018-07-03T17:18:51.184Z,9.60
2018-07-03T17:21:20.961Z,9.70
2018-07-03T17:23:50.743Z,9.43
2018-07-03T17:26:20.526Z,11.33
2018-07-03T17:28:50.388Z,11.73
2018-07-03T17:31:20.239Z,12.10
2018-07-03T17:33:50.221Z,9.83
2018-07-03T17:36:20.096Z,10.57
2018-07-03T17:38:49.930Z,9.93
2018-07-03T17:41:30.456Z,10.00
2018-07-03T17:44:12.575Z,9.87
2018-07-03T17:46:42.552Z,10.20
2018-07-03T17:49:12.480Z,9.90
2018-07-03T17:51:42.405Z,10.43
2018-07-03T17:54:12.377Z,11.37
2018-07-03T17:56:42.216Z,12.97
2018-07-03T17:59:12.046Z,14.00
2018-07-03T18:01:41.996Z,14.20
2018-07-03T18:04:11.939Z,12.63
2018-07-03T18:06:41.849Z,12.83
2018-07-03T18:09:13.027Z,15.23
2018-07-03T18:11:42.967Z,14.17
2018-07-03T18:14:12.862Z,11.20
2018-07-03T18:16:42.728Z,11.37
2018-07-03T18:19:17.579Z,14.47
2018-07-03T18:21:47.368Z,13.77
2018-07-03T18:24:17.370Z,12.60
2018-07-03T18:26:47.191Z,11.73
2018-07-03T18:29:16.995Z,13.33
2018-07-03T18:31:46.775Z,15.10
2018-07-03T18:34:16.716Z,13.73
2018-07-03T18:36:46.559Z,12.63
2018-07-03T18:39:16.440Z,12.90
2018-07-03T18:41:46.321Z,12.53
2018-07-03T18:44:16.231Z,13.10
2018-07-03T18:46:46.131Z,12.60
2018-07-03T18:49:15.960Z,12.47
2018-07-03T18:51:45.900Z,12.73
2018-07-03T18:54:15.788Z,13.10
2018-07-03T18:56:45.660Z,13.63
2018-07-03T18:59:15.527Z,13.73
2018-07-03T19:01:45.400Z,13.00
2018-07-03T19:04:15.273Z,13.93
2018-07-03T19:06:45.101Z,14.10
2018-07-03T19:09:15.032Z,12.73
2018-07-03T19:11:44.964Z,13.97
2018-07-03T19:14:14.923Z,11.43
2018-07-03T19:16:44.862Z,11.47
2018-07-03T19:19:14.773Z,13.17
2018-07-03T19:21:44.673Z,11.77
2018-07-03T19:24:14.804Z,11.93
2018-07-03T19:26:44.635Z,13.03
2018-07-03T19:29:14.571Z,13.23
2018-07-03T19:31:44.626Z,11.53
2018-07-03T19:34:14.501Z,12.97
2018-07-03T19:36:44.356Z,12.10
2018-07-03T19:39:14.773Z,13.60
2018-07-03T19:41:44.592Z,13.07
2018-07-03T19:44:14.442Z,13.83
2018-07-03T19:46:44.282Z,12.47
2018-07-03T19:49:14.159Z,11.80
2018-07-03T19:51:44.004Z,12.07
2018-07-03T19:54:13.943Z,11.50
2018-07-03T19:56:43.909Z,12.97
2018-07-03T19:59:13.744Z,13.17
2018-07-03T20:01:43.656Z,13.10
2018-07-03T20:04:13.534Z,13.20
2018-07-03T20:06:43.487Z,13.17
2018-07-03T20:09:13.869Z,14.00
2018-07-03T20:11:46.702Z,13.17
2018-07-03T20:14:16.527Z,13.20
2018-07-03T20:16:46.537Z,13.40
2018-07-03T20:19:17.016Z,14.27
2018-07-03T20:21:47.519Z,14.73
2018-07-03T20:24:17.535Z,14.17
2018-07-03T20:26:47.346Z,13.57
2018-07-03T20:29:17.224Z,14.20
2018-07-03T20:31:47.059Z,14.20
2018-07-03T20:34:16.900Z,13.17
2018-07-03T20:36:46.716Z,13.33
2018-07-03T20:39:16.528Z,13.73
2018-07-03T20:41:46.380Z,13.27
2018-07-03T20:44:16.337Z,14.30
2018-07-03T20:46:46.179Z,13.93
2018-07-03T20:49:16.029Z,15.10
2018-07-03T20:51:45.900Z,13.77
2018-07-03T20:54:15.696Z,14.30
2018-07-03T20:56:45.518Z,14.87
2018-07-03T20:59:15.353Z,14.53
2018-07-03T21:01:45.256Z,14.50
2018-07-03T21:04:15.263Z,14.60
2018-07-03T21:06:44.885Z,15.00
2018-07-03T21:09:14.763Z,15.97
2018-07-03T21:11:44.757Z,15.03
2018-07-03T21:14:14.607Z,16.37
2018-07-03T21:16:44.508Z,16.23
2018-07-03T21:19:14.414Z,16.63
2018-07-03T21:21:44.255Z,15.80
2018-07-03T21:24:14.047Z,15.63
2018-07-03T21:26:43.846Z,16.10
2018-07-03T21:29:13.680Z,17.23
2018-07-03T21:31:43.607Z,15.53
2018-07-03T21:34:13.547Z,14.83
2018-07-03T21:36:44.184Z,15.70
2018-07-03T21:39:14.100Z,15.57
2018-07-03T21:41:43.903Z,14.97
2018-07-03T21:44:13.731Z,14.43
2018-07-03T21:46:43.688Z,14.67
2018-07-03T21:49:13.547Z,14.93
2018-07-03T21:51:43.532Z,15.00
2018-07-03T21:54:13.375Z,15.70
2018-07-03T21:56:43.164Z,15.20
2018-07-03T21:59:13.667Z,16.80
2018-07-03T22:01:43.571Z,16.57
2018-07-03T22:04:13.501Z,15.13
2018-07-03T22:06:43.292Z,14.80
2018-07-03T22:09:14.099Z,14.77
2018-07-03T22:11:44.231Z,14.43
2018-07-03T22:14:14.108Z,15.03
2018-07-03T22:16:44.051Z,15.97
2018-07-03T22:19:13.955Z,15.77
2018-07-03T22:21:43.989Z,15.23
2018-07-03T22:24:13.830Z,14.13
2018-07-03T22:26:43.612Z,14.80
2018-07-03T22:29:13.533Z,15.20
2018-07-03T22:31:43.338Z,15.90
2018-07-03T22:34:13.147Z,16.73
2018-07-03T22:36:43.000Z,14.57
2018-07-03T22:39:12.963Z,14.40
2018-07-03T22:41:42.793Z,15.07
2018-07-03T22:44:12.697Z,16.17
2018-07-03T22:46:42.735Z,15.83
2018-07-03T22:49:12.527Z,15.70
2018-07-03T22:51:42.326Z,15.67
2018-07-03T22:54:12.276Z,16.17
2018-07-03T22:56:42.115Z,15.10
2018-07-03T22:59:11.960Z,14.70
2018-07-03T23:01:41.747Z,15.50
2018-07-03T23:04:11.640Z,15.47
2018-07-03T23:06:41.440Z,14.77
2018-07-03T23:09:11.267Z,15.37
2018-07-03T23:11:41.078Z,15.90
2018-07-03T23:14:10.868Z,14.70
2018-07-03T23:16:40.726Z,14.80
2018-07-03T23:19:10.982Z,14.30
2018-07-03T23:21:40.782Z,15.57
2018-07-03T23:24:10.568Z,16.10
2018-07-03T23:26:40.496Z,15.53
2018-07-03T23:29:10.300Z,15.63
2018-07-03T23:31:40.208Z,14.30
2018-07-03T23:34:10.151Z,14.57
2018-07-03T23:36:39.982Z,13.57
2018-07-03T23:39:10.732Z,14.57
2018-07-03T23:41:40.573Z,13.87
2018-07-03T23:44:10.415Z,12.90
2018-07-03T23:46:51.081Z,13.93
2018-07-03T23:49:37.727Z,14.00
2018-07-03T23:52:24.440Z,14.10
2018-07-03T23:55:10.872Z,13.80
2018-07-03T23:57:57.454Z,14.40
